Flight Track Log - Related Links

Times and Time Zones

All times are in EDT time to prevent confusion due to time zone crossing. See the DAL872 flight status page for this flight to view local times or setup timezone preferences in your user account.

Time Position Orientation Groundspeed Altitude Reporting Facility
EDT Latitude Longitude Course Direction KTS MPH feet Rate Location/Type
Wed 10:35:17 AM 33.6333 -84.4833 193° South 166 191 2,300  Level Atlanta TRACON
Wed 10:36:17 AM 33.6333 -84.5500 270° West 249 287 5,000 2,800 Climbing Atlanta TRACON
Wed 10:37:17 AM 33.6333 -84.6500 270° West 269 310 7,900 2,750 Climbing Atlanta TRACON
Wed 10:38:00 AM 33.1558 -84.5591 193° South  Level Estimated
Wed 10:38:17 AM 33.6333 -84.7333 270° West 284 327 10,500  Level Atlanta TRACON
Wed 10:39:00 AM 33.0355 -84.5917 193° South  Level Estimated
Wed 10:39:17 AM 33.6000 -84.8500 251° West 364 419 11,800  Level Atlanta TRACON
Wed 10:39:52 AM 33.5761 -84.9139 246° West 380 437 13,200 2,084 Climbing Atlanta Center
Wed 10:40:00 AM 32.9152 -84.6242 193° South  Level Estimated
Wed 10:40:52 AM 33.5356 -85.0381 249° West 387 445 15,100  Level Atlanta Center
Wed 10:41:52 AM 33.4947 -85.1647 249° West 402 463 17,400 2,200 Climbing Atlanta Center
Wed 10:42:52 AM 33.4622 -85.2989 254° West 417 480 19,500 2,000 Climbing Atlanta Center
Wed 10:43:52 AM 33.4336 -85.4378 256° West 428 493 21,400 1,700 Climbing Atlanta Center
Wed 10:44:52 AM 33.4047 -85.5767 256° West 436 502 22,900 1,300 Climbing Atlanta Center
Wed 10:45:52 AM 33.3697 -85.7028 252° West 436 502 24,000 1,240 Climbing Atlanta Center
Wed 10:46:53 AM 33.2617 -85.8150 221° Southwest 452 520 25,400 1,250 Climbing Atlanta Center
Wed 10:47:52 AM 33.1661 -85.9272 225° Southwest 469 540 26,500 1,563 Climbing Atlanta Center
Wed 10:48:52 AM 33.0728 -86.0294 223° Southwest 469 540 28,500 1,700 Climbing Atlanta Center
Wed 10:49:52 AM 32.9750 -86.1386 223° Southwest 469 540 29,900 1,500 Climbing Atlanta Center
Wed 10:50:52 AM 32.8833 -86.2378 222° Southwest 469 540 31,500 1,400 Climbing Atlanta Center
Wed 10:51:52 AM 32.7917 -86.3417 224° Southwest 459 528 32,700 1,150 Climbing Atlanta Center
Wed 10:52:52 AM 32.7000 -86.4456 224° Southwest 454 522 33,800 650 Climbing Atlanta Center
Wed 10:53:52 AM 32.6061 -86.5442 222° Southwest 454 522 34,000 100 Climbing Atlanta Center
Wed 10:54:52 AM 32.5142 -86.6472 223° Southwest 454 522 34,000  Level Atlanta Center
Wed 10:55:52 AM 32.4203 -86.7481 222° Southwest 465 535 34,000  Level Atlanta Center
Wed 10:56:52 AM 32.3261 -86.8508 223° Southwest 465 535 34,000  Level Atlanta Center
Wed 10:57:52 AM 32.2300 -86.9508 221° Southwest 465 535 34,000  Level Atlanta Center
Wed 10:58:52 AM 32.1378 -87.0533 223° Southwest 465 535 34,000  Level Atlanta Center
Wed 10:59:52 AM 32.0456 -87.1506 222° Southwest 460 529 34,000  Level Atlanta Center
Wed 11:00:52 AM 31.9553 -87.2503 223° Southwest 460 529 34,000  Level Atlanta Center
Wed 11:01:52 AM 31.8736 -87.3403 223° Southwest 450 518 34,000  Level Atlanta Center
Wed 11:03:59 AM 31.6694 -87.5481 221° Southwest 456 525 34,000  Level Houston Center
Wed 11:05:01 AM 31.5783 -87.6458 222° Southwest 450 518 34,000  Level Houston Center
Wed 11:06:04 AM 31.4858 -87.7444 222° Southwest 450 518 34,000  Level Houston Center
Wed 11:07:06 AM 31.3739 -87.8614 222° Southwest 450 518 34,000  Level Houston Center
Wed 11:08:08 AM 31.2814 -87.9592 222° Southwest 450 518 34,000 -48 Level Houston Center
Wed 11:09:10 AM 31.2003 -88.0453 222° Southwest 450 518 33,900  Descending Houston Center
Wed 11:10:12 AM 31.0881 -88.1619 222° Southwest 450 518 34,000 48 Climbing Houston Center
Wed 11:11:15 AM 30.9925 -88.2603 221° Southwest 454 522 34,000 -48 Level Houston Center
Wed 11:12:17 AM 30.8983 -88.3592 222° Southwest 454 522 33,900  Descending Houston Center
Wed 11:13:19 AM 30.8036 -88.4567 221° Southwest 454 522 34,000 48 Climbing Houston Center
Wed 11:14:21 AM 30.7097 -88.5544 222° Southwest 454 522 34,000  Level Houston Center
Wed 11:15:23 AM 30.6136 -88.6525 221° Southwest 454 522 34,000  Level Houston Center
Wed 11:16:25 AM 30.5003 -88.7694 222° Southwest 454 522 34,000  Level Houston Center
Wed 11:17:28 AM 30.4058 -88.8661 221° Southwest 454 522 34,000 -48 Level Houston Center
Wed 11:18:30 AM 30.3100 -88.9628 221° Southwest 454 522 33,900  Descending Houston Center
Wed 11:19:32 AM 30.2150 -89.0611 222° Southwest 454 522 34,000 48 Climbing Houston Center
Wed 11:20:34 AM 30.1158 -89.1608 221° Southwest 464 534 34,000  Level Houston Center
Wed 11:21:36 AM 30.0189 -89.2592 221° Southwest 465 535 34,000  Level Houston Center
Wed 11:22:39 AM 29.9025 -89.3775 221° Southwest 463 533 34,000 -48 Level Houston Center
Wed 11:23:41 AM 29.8061 -89.4739 221° Southwest 458 527 33,900 -48 Descending Houston Center
Wed 11:24:43 AM 29.7094 -89.5708 221° Southwest 458 527 33,900  Level Houston Center
Wed 11:25:45 AM 29.6133 -89.6686 222° Southwest 459 528 33,900  Level Houston Center
Wed 11:26:47 AM 29.5164 -89.7647 221° Southwest 459 528 33,900 48 Level Houston Center
Wed 11:27:50 AM 29.4189 -89.8619 221° Southwest 459 528 34,000 480 Climbing Houston Center
Wed 11:28:52 AM 29.3022 -89.9783 221° Southwest 460 529 34,900 484 Climbing Houston Center
Wed 11:29:54 AM 29.2011 -90.0675 218° Southwest 460 529 35,000  Climbing Houston Center
Wed 11:30:56 AM 29.0761 -90.1003 177° South 459 528 34,900 -48 Descending Houston Center
Wed 11:31:00 AM 29.0768 -90.0950 177° South  Level FlightAware Approximate
Wed 11:31:58 AM 28.9461 -90.0911 176° South 461 531 34,900  Level Houston Center
Wed 11:33:00 AM 28.8178 -90.0853 178° South 461 531 34,900  Level Houston Center
Wed 11:34:03 AM 28.6661 -90.0761 177° South 456 525 34,900  Level Houston Center
Wed 11:35:05 AM 28.5403 -90.0697 177° South 456 525 34,900 48 Level Houston Center
Wed 11:36:07 AM 28.4142 -90.0633 177° South 455 524 35,000 48 Climbing Houston Center
Wed 11:37:09 AM 28.2883 -90.0550 177° South 452 520 35,000 -48 Level Houston Center
Wed 11:38:11 AM 28.1636 -90.0489 178° South 452 520 34,900 -48 Descending Houston Center
Wed 11:39:14 AM 28.0364 -90.0397 176° South 452 520 34,900  Level Houston Center
Wed 11:40:16 AM 27.8869 -90.0300 177° South 452 520 34,900 48 Level Houston Center
Wed 11:41:18 AM 27.7581 -90.0247 178° South 456 525 35,000 48 Climbing Houston Center
Wed 11:42:20 AM 27.6300 -90.0189 178° South 457 526 35,000  Level Houston Center
Wed 11:43:22 AM 27.5014 -90.0097 176° South 458 527 35,000  Level Houston Center
Wed 11:44:24 AM 27.3728 -89.9989 176° South 459 528 35,000 -48 Level Houston Center
Wed 11:45:27 AM 27.2178 -89.9981 180° South 460 529 34,900  Descending Houston Center
Wed 11:46:29 AM 27.0881 -89.9869 176° South 461 531 35,000 97 Climbing Houston Center
Wed 11:48:00 AM 26.9039 -89.9735 176° South  Level FlightAware Approximate
Wed 11:55:00 AM 26.0535 -89.9192 178° South  Level FlightAware Approximate
Wed 11:56:00 AM 25.9319 -89.9134 178° South  Level FlightAware Approximate
Wed 11:57:00 AM 25.8104 -89.9076 178° South  Level FlightAware Approximate
Wed 11:58:00 AM 25.6888 -89.9018 178° South  Level FlightAware Approximate
Wed 11:59:00 AM 25.5672 -89.8952 177° South  Level FlightAware Approximate
Wed 12:00:00 PM 25.4457 -89.8881 177° South  Level FlightAware Approximate
Wed 12:01:00 PM 25.3242 -89.8810 177° South  Level FlightAware Approximate
Wed 12:02:00 PM 25.2027 -89.8739 177° South  Level FlightAware Approximate
Wed 12:03:00 PM 25.0812 -89.8669 177° South  Level FlightAware Approximate
Wed 12:04:00 PM 24.9597 -89.8598 177° South  Level FlightAware Approximate
Wed 12:05:00 PM 24.8382 -89.8528 177° South  Level FlightAware Approximate
Wed 12:06:00 PM 24.7167 -89.8458 177° South  Level FlightAware Approximate
Wed 12:07:00 PM 24.5951 -89.8388 177° South  Level FlightAware Approximate
Wed 12:08:00 PM 24.4736 -89.8328 177° South  Level FlightAware Approximate
Wed 12:09:00 PM 24.3521 -89.8258 177° South  Level FlightAware Approximate
Wed 12:10:00 PM 24.2306 -89.8188 177° South  Level FlightAware Approximate
Wed 12:11:00 PM 24.1090 -89.8119 177° South  Level FlightAware Approximate
Wed 12:12:00 PM 23.9875 -89.8050 177° South  Level FlightAware Approximate
Wed 12:13:00 PM 23.8660 -89.7981 177° South  Level FlightAware Approximate
Wed 12:14:00 PM 23.7445 -89.7915 177° South  Level FlightAware Approximate
Wed 12:15:00 PM 23.6204 -89.7848 177° South  Level FlightAware Approximate
Wed 12:16:00 PM 23.4963 -89.7780 177° South  Level FlightAware Approximate
Wed 12:17:00 PM 23.3722 -89.7713 177° South  Level FlightAware Approximate
Wed 12:18:00 PM 23.2481 -89.7646 177° South  Level FlightAware Approximate
Wed 12:19:00 PM 23.1239 -89.7579 177° South  Level FlightAware Approximate
Wed 12:20:00 PM 22.9998 -89.7512 177° South  Level FlightAware Approximate
Wed 12:21:00 PM 22.8757 -89.7446 177° South  Level FlightAware Approximate
Wed 12:22:00 PM 22.7516 -89.7379 177° South  Level FlightAware Approximate
Wed 12:23:00 PM 22.6275 -89.7318 178° South  Level FlightAware Approximate
Wed 12:24:00 PM 22.5033 -89.7270 178° South  Level FlightAware Approximate
Wed 12:25:00 PM 22.3792 -89.7223 178° South  Level FlightAware Approximate
Wed 12:26:00 PM 22.2550 -89.7175 178° South  Level FlightAware Approximate
Wed 12:27:00 PM 22.1309 -89.7106 177° South  Level FlightAware Approximate
Wed 12:28:00 PM 22.0068 -89.7033 177° South  Level FlightAware Approximate
Wed 12:29:00 PM 21.8827 -89.6964 177° South  Level FlightAware Approximate
Wed 12:30:00 PM 21.7586 -89.6899 177° South  Level FlightAware Approximate
Wed 12:31:00 PM 21.6345 -89.6834 177° South  Level FlightAware Approximate
Wed 12:32:00 PM 21.5103 -89.6775 177° South  Level FlightAware Approximate
Wed 12:33:00 PM 21.3862 -89.6715 177° South  Level FlightAware Approximate
Wed 12:34:00 PM 21.2621 -89.6656 177° South  Level FlightAware Approximate
Wed 12:35:00 PM 21.1380 -89.6597 177° South  Level FlightAware Approximate
Wed 12:36:00 PM 21.0138 -89.6538 177° South  Level FlightAware Approximate
Wed 12:37:00 PM 20.8897 -89.6465 176° South  Level FlightAware Approximate
Wed 12:38:00 PM 20.7658 -89.6367 176° South  Level FlightAware Approximate
Wed 12:39:00 PM 20.6419 -89.6269 176° South  Level FlightAware Approximate
Wed 12:40:00 PM 20.5180 -89.6171 176° South  Level FlightAware Approximate
Wed 12:41:00 PM 20.3941 -89.6074 176° South  Level FlightAware Approximate
Wed 12:42:00 PM 20.2701 -89.5976 176° South  Level FlightAware Approximate
Wed 12:43:00 PM 20.1462 -89.5879 176° South  Level FlightAware Approximate
Wed 12:44:00 PM 20.0223 -89.5782 176° South  Level FlightAware Approximate
Wed 12:45:00 PM 19.8984 -89.5685 176° South  Level FlightAware Approximate
Wed 12:46:00 PM 19.7745 -89.5588 176° South  Level FlightAware Approximate
Wed 12:47:00 PM 19.6505 -89.5491 176° South  Level FlightAware Approximate
Wed 12:48:00 PM 19.5266 -89.5395 176° South  Level FlightAware Approximate
Wed 12:49:00 PM 19.4027 -89.5298 176° South  Level FlightAware Approximate
Wed 12:50:00 PM 19.2788 -89.5202 176° South  Level FlightAware Approximate
Wed 12:51:00 PM 19.1547 -89.5130 177° South  Level FlightAware Approximate
Wed 12:52:00 PM 19.0306 -89.5072 177° South  Level FlightAware Approximate
Wed 12:53:00 PM 18.9064 -89.5014 177° South  Level FlightAware Approximate
Wed 12:54:00 PM 18.7823 -89.4956 177° South  Level FlightAware Approximate
Wed 12:55:00 PM 18.6582 -89.4898 177° South  Level FlightAware Approximate
Wed 12:56:00 PM 18.5340 -89.4840 177° South  Level FlightAware Approximate
Wed 12:57:00 PM 18.4099 -89.4782 177° South  Level FlightAware Approximate
Wed 12:58:00 PM 18.2857 -89.4725 177° South  Level FlightAware Approximate
Wed 12:59:00 PM 18.1616 -89.4667 177° South  Level FlightAware Approximate
Wed 01:00:00 PM 18.0375 -89.4610 177° South  Level FlightAware Approximate
Wed 01:01:00 PM 17.9133 -89.4552 177° South  Level FlightAware Approximate
Wed 01:02:00 PM 17.7892 -89.4488 174° South  Level FlightAware Approximate
Wed 01:03:00 PM 17.6657 -89.4351 174° South  Level FlightAware Approximate
Wed 01:04:00 PM 17.5418 -89.4248 176° South  Level FlightAware Approximate
Wed 01:05:00 PM 17.4179 -89.4151 176° South  Level FlightAware Approximate
Wed 01:06:00 PM 17.2940 -89.4053 176° South  Level FlightAware Approximate
Wed 01:07:00 PM 17.1714 -89.3957 176° South  Level FlightAware Approximate
Wed 01:08:00 PM 17.0488 -89.3861 176° South  Level FlightAware Approximate
Wed 01:09:00 PM 16.9262 -89.3765 176° South  Level FlightAware Approximate
Wed 01:10:00 PM 16.8036 -89.3670 176° South  Level FlightAware Approximate
Wed 01:11:00 PM 16.6814 -89.3531 174° South  Level FlightAware Approximate
Wed 01:12:00 PM 16.5592 -89.3391 174° South  Level FlightAware Approximate
Wed 01:13:00 PM 16.4370 -89.3251 174° South  Level FlightAware Approximate
Wed 01:14:00 PM 16.3148 -89.3112 174° South  Level FlightAware Approximate
Wed 01:15:00 PM 16.1926 -89.2980 175° South  Level FlightAware Approximate
Wed 01:16:00 PM 16.0700 -89.2878 175° South  Level FlightAware Approximate
Wed 01:17:00 PM 15.9475 -89.2776 175° South  Level FlightAware Approximate
Wed 01:18:00 PM 15.8250 -89.2674 175° South  Level FlightAware Approximate
Wed 01:19:00 PM 15.7021 -89.2623 178° South  Level FlightAware Approximate
Wed 01:20:00 PM 15.5793 -89.2575 178° South  Level FlightAware Approximate
Wed 01:21:00 PM 15.4565 -89.2528 178° South  Level FlightAware Approximate
Wed 01:22:00 PM 15.3372 -89.2333 180° South  Level FlightAware Approximate
Wed 01:23:00 PM 15.2145 -89.2277 177° South  Level FlightAware Approximate
Wed 01:24:00 PM 15.0917 -89.2208 177° South  Level FlightAware Approximate
Wed 01:25:00 PM 14.9690 -89.2139 177° South  Level FlightAware Approximate
Wed 01:26:00 PM 14.8462 -89.2066 177° South  Level FlightAware Approximate
Wed 01:27:00 PM 14.7235 -89.1991 175° South  Level FlightAware Approximate
Wed 01:28:00 PM 14.6011 -89.1880 175° South  Level FlightAware Approximate
Wed 01:29:00 PM 14.4786 -89.1768 175° South  Level FlightAware Approximate
Wed 01:30:00 PM 14.3562 -89.1655 174° South  Level FlightAware Approximate
Wed 01:31:00 PM 14.2340 -89.1519 174° South  Level FlightAware Approximate
Wed 01:32:00 PM 14.1111 -89.1500 180° South  Level FlightAware Approximate
Wed 01:33:00 PM 13.9914 -89.1243 172° South  Level FlightAware Approximate
Wed 01:34:00 PM 13.8698 -89.1056 172° South  Level FlightAware Approximate
Wed 01:35:00 PM 13.7477 -89.0914 174° South  Level FlightAware Approximate
Wed 01:36:00 PM 13.6317 -89.0667 180° South  Level FlightAware Approximate
Wed 01:37:00 PM 13.5102 -89.0520 169° South  Level FlightAware Approximate
Wed 01:38:00 PM 13.4410 -89.0557 180° South  Level Estimated
Wed 01:39:00 PM 13.4410 -89.0557 180° South  Level Estimated
Wed 01:40:00 PM 13.4410 -89.0557 180° South  Level Estimated
Wed 01:41:00 PM 13.4410 -89.0557 180° South  Level Estimated
Wed 01:42:00 PM 13.4410 -89.0557 180° South  Level Estimated
Wed 01:43:00 PM 13.4410 -89.0557 180° South  Level Estimated
Wed 01:44:00 PM 13.4410 -89.0557 180° South  Level Estimated
Wed 01:45:00 PM 13.4410 -89.0557 180° South  Level Estimated
Wed 01:46:00 PM 13.4410 -89.0557 180° South  Level Estimated
Wed 01:47:00 PM 13.4410 -89.0557 180° South  Level Estimated
Wed 01:48:00 PM 13.4410 -89.0557 180° South  Level Estimated

Login

Don't have an account? Register now (free) for customized features, flight alerts, and more!